Decoded Metar for LRBS (BUCHAREST in ROMANIA) (IATA:BBU) | Meteo·Mobile Aviation Weather
aviador You're here:

LRBS Decoded Metar

BUCHAREST in ROMANIA
Report Time2018-11-21 01:00:00
UTC Time2018-11-21 01:27:23
Flight Rules ifr IFR
Wind050° at 12 kt
W.Decomp.*RWY 07: 11.0 kt HW 4.9 kt LCW
W.Rank050° ranks 1
Current wind is above 050° avg. (7.7)
Visibility3000 m
Phenomena:Light Rain
Mist
Clouds:Overcast 005 Hf
Ceiling500 ft
Temp01°C (ISA -13)
Dew Point01°C (100% RH)
AAT-5.2°C
QNH1020 hPa
Density Alt-1,483 ft
Elevation299 ft
Report Wrong Elevation
Raw Report
METAR LRBS 210100Z 05012KT 020V080 3000 -RA BR OVC005 01/01 Q1020 R07/29//95
NOSIG=

Extra information for LRBS:More info

Metar Taf Metar & Taf Last 4 Metars F.Rules Stats Wind Profile Meteogram Temp Stats Airport Information Weather charts Add Link Nearby VenuesMetar ALERT Operation Metar Decoded Social comments